Dominion Park, New York
Current Conditions -  °F | °C
As of 6:54 AM on Sunday 25 Jan 2015 (Local Time) from KSYR Reporting Station
Light Snow Light Snow  
Wind Chill:   Ceiling: 2700
Heat Index: 22°   Visibility: 9mi
Dew Point: 17°   Wind: 18mph
Humidity: 82%   Direction: 320°NW
Pressure: 29.71"   Gusts: 25mph
Location:  43.1489°N, 76.2142°W
Report Text: KSYR 251154Z 32016G22KT 9SM -SN BLSN SCT021 BKN027 OVC037 M06/M08 A2971 RMK AO2 PK WND 29029/1116 SLP063 4/002 P0000 60000 T10561083 11006 21056 53058 $
Loading
Personal Weather Stations






























Interactive Weather Map New forecast layout! Learn more

10-Day Weather Forecast

Advertisements
Track Severe Weather on mobile